sensor_id;sensor_type;location;lat;lon;timestamp;P1;durP1;ratioP1;P2;durP2;ratioP2
78298;SDS011;67556;55.656;12.590;2023-07-20T00:01:37;2.63;;;2.03;;
78298;SDS011;67556;55.656;12.590;2023-07-20T00:04:06;2.33;;;1.88;;
78298;SDS011;67556;55.656;12.590;2023-07-20T00:06:34;2.92;;;2.05;;
78298;SDS011;67556;55.656;12.590;2023-07-20T00:09:00;2.60;;;2.20;;
78298;SDS011;67556;55.656;12.590;2023-07-20T00:11:27;3.00;;;1.90;;
78298;SDS011;67556;55.656;12.590;2023-07-20T00:13:53;3.55;;;2.40;;
78298;SDS011;67556;55.656;12.590;2023-07-20T00:16:26;3.28;;;2.30;;
78298;SDS011;67556;55.656;12.590;2023-07-20T00:18:52;3.50;;;2.40;;
78298;SDS011;67556;55.656;12.590;2023-07-20T00:21:19;3.45;;;2.25;;
78298;SDS011;67556;55.656;12.590;2023-07-20T00:23:47;3.95;;;2.28;;
78298;SDS011;67556;55.656;12.590;2023-07-20T00:26:14;3.60;;;2.22;;
78298;SDS011;67556;55.656;12.590;2023-07-20T00:28:40;2.65;;;2.10;;
78298;SDS011;67556;55.656;12.590;2023-07-20T00:31:07;2.70;;;1.95;;
78298;SDS011;67556;55.656;12.590;2023-07-20T00:33:33;2.75;;;2.33;;
78298;SDS011;67556;55.656;12.590;2023-07-20T00:36:00;3.47;;;2.38;;
78298;SDS011;67556;55.656;12.590;2023-07-20T00:38:27;3.72;;;2.55;;
78298;SDS011;67556;55.656;12.590;2023-07-20T00:40:55;3.83;;;2.42;;
78298;SDS011;67556;55.656;12.590;2023-07-20T00:43:21;2.92;;;2.05;;
78298;SDS011;67556;55.656;12.590;2023-07-20T00:45:47;2.42;;;2.00;;
78298;SDS011;67556;55.656;12.590;2023-07-20T00:48:14;2.95;;;2.17;;
78298;SDS011;67556;55.656;12.590;2023-07-20T00:50:41;3.25;;;2.20;;
78298;SDS011;67556;55.656;12.590;2023-07-20T00:53:08;3.15;;;2.13;;
78298;SDS011;67556;55.656;12.590;2023-07-20T00:55:41;4.43;;;2.38;;
78298;SDS011;67556;55.656;12.590;2023-07-20T00:58:09;3.35;;;2.55;;
78298;SDS011;67556;55.656;12.590;2023-07-20T01:00:36;3.05;;;2.40;;
78298;SDS011;67556;55.656;12.590;2023-07-20T01:03:03;4.47;;;2.70;;
78298;SDS011;67556;55.656;12.590;2023-07-20T01:05:33;4.00;;;2.40;;
78298;SDS011;67556;55.656;12.590;2023-07-20T01:08:15;4.22;;;2.42;;
78298;SDS011;67556;55.656;12.590;2023-07-20T01:10:50;3.65;;;2.25;;
78298;SDS011;67556;55.656;12.590;2023-07-20T01:13:23;3.67;;;2.38;;
78298;SDS011;67556;55.656;12.590;2023-07-20T01:15:53;2.70;;;1.80;;
78298;SDS011;67556;55.656;12.590;2023-07-20T01:18:22;3.60;;;2.25;;
78298;SDS011;67556;55.656;12.590;2023-07-20T01:20:49;3.13;;;2.20;;
78298;SDS011;67556;55.656;12.590;2023-07-20T01:23:38;4.05;;;2.58;;
78298;SDS011;67556;55.656;12.590;2023-07-20T01:26:36;3.45;;;2.15;;
78298;SDS011;67556;55.656;12.590;2023-07-20T01:29:21;2.78;;;2.30;;
78298;SDS011;67556;55.656;12.590;2023-07-20T01:31:57;4.38;;;2.40;;
78298;SDS011;67556;55.656;12.590;2023-07-20T01:34:28;4.10;;;2.00;;
78298;SDS011;67556;55.656;12.590;2023-07-20T01:36:55;3.25;;;2.10;;
78298;SDS011;67556;55.656;12.590;2023-07-20T01:39:23;3.72;;;2.13;;
78298;SDS011;67556;55.656;12.590;2023-07-20T01:41:50;2.65;;;2.25;;
78298;SDS011;67556;55.656;12.590;2023-07-20T01:44:16;3.08;;;2.10;;
78298;SDS011;67556;55.656;12.590;2023-07-20T01:46:43;2.70;;;2.30;;
78298;SDS011;67556;55.656;12.590;2023-07-20T01:49:11;4.18;;;2.10;;
78298;SDS011;67556;55.656;12.590;2023-07-20T01:51:37;3.13;;;2.03;;
78298;SDS011;67556;55.656;12.590;2023-07-20T01:54:05;2.70;;;1.98;;
78298;SDS011;67556;55.656;12.590;2023-07-20T01:56:32;2.53;;;2.10;;
78298;SDS011;67556;55.656;12.590;2023-07-20T01:58:59;2.70;;;2.00;;
78298;SDS011;67556;55.656;12.590;2023-07-20T02:01:25;2.85;;;1.90;;
78298;SDS011;67556;55.656;12.590;2023-07-20T02:03:53;3.60;;;2.00;;
78298;SDS011;67556;55.656;12.590;2023-07-20T02:06:21;4.68;;;2.00;;
78298;SDS011;67556;55.656;12.590;2023-07-20T02:08:47;3.08;;;2.08;;
78298;SDS011;67556;55.656;12.590;2023-07-20T02:11:14;2.15;;;1.95;;
78298;SDS011;67556;55.656;12.590;2023-07-20T02:13:40;3.60;;;2.00;;
78298;SDS011;67556;55.656;12.590;2023-07-20T02:16:07;3.08;;;2.10;;
78298;SDS011;67556;55.656;12.590;2023-07-20T02:18:33;2.53;;;2.08;;
78298;SDS011;67556;55.656;12.590;2023-07-20T02:21:01;2.20;;;1.98;;
78298;SDS011;67556;55.656;12.590;2023-07-20T02:23:29;3.78;;;1.95;;
78298;SDS011;67556;55.656;12.590;2023-07-20T02:25:56;3.65;;;2.05;;
78298;SDS011;67556;55.656;12.590;2023-07-20T02:28:23;2.72;;;1.92;;
78298;SDS011;67556;55.656;12.590;2023-07-20T02:30:49;3.10;;;1.88;;
78298;SDS011;67556;55.656;12.590;2023-07-20T02:33:17;4.82;;;2.10;;
78298;SDS011;67556;55.656;12.590;2023-07-20T02:35:43;2.97;;;1.95;;
78298;SDS011;67556;55.656;12.590;2023-07-20T02:38:10;3.40;;;2.20;;
78298;SDS011;67556;55.656;12.590;2023-07-20T02:40:38;4.05;;;2.30;;
78298;SDS011;67556;55.656;12.590;2023-07-20T02:43:04;3.53;;;2.10;;
78298;SDS011;67556;55.656;12.590;2023-07-20T02:45:31;3.53;;;2.17;;
78298;SDS011;67556;55.656;12.590;2023-07-20T02:47:57;2.53;;;2.10;;
78298;SDS011;67556;55.656;12.590;2023-07-20T02:50:24;2.88;;;2.10;;
78298;SDS011;67556;55.656;12.590;2023-07-20T02:52:50;3.88;;;2.13;;
78298;SDS011;67556;55.656;12.590;2023-07-20T02:55:16;4.22;;;2.70;;
78298;SDS011;67556;55.656;12.590;2023-07-20T02:57:44;3.15;;;2.03;;
78298;SDS011;67556;55.656;12.590;2023-07-20T03:03:00;2.65;;;2.15;;
78298;SDS011;67556;55.656;12.590;2023-07-20T03:05:27;3.15;;;1.83;;
78298;SDS011;67556;55.656;12.590;2023-07-20T03:07:54;3.30;;;2.00;;
78298;SDS011;67556;55.656;12.590;2023-07-20T03:10:21;3.33;;;2.30;;
78298;SDS011;67556;55.656;12.590;2023-07-20T03:12:50;6.57;;;2.55;;
78298;SDS011;67556;55.656;12.590;2023-07-20T03:15:16;3.97;;;2.20;;
78298;SDS011;67556;55.656;12.590;2023-07-20T03:17:44;3.00;;;2.13;;
78298;SDS011;67556;55.656;12.590;2023-07-20T03:20:11;3.80;;;2.22;;
78298;SDS011;67556;55.656;12.590;2023-07-20T03:22:38;3.10;;;2.15;;
78298;SDS011;67556;55.656;12.590;2023-07-20T03:25:06;4.25;;;2.00;;
78298;SDS011;67556;55.656;12.590;2023-07-20T03:27:33;2.30;;;2.03;;
78298;SDS011;67556;55.656;12.590;2023-07-20T03:30:05;2.97;;;2.25;;
78298;SDS011;67556;55.656;12.590;2023-07-20T03:32:34;5.05;;;2.30;;
78298;SDS011;67556;55.656;12.590;2023-07-20T03:35:01;3.30;;;2.10;;
78298;SDS011;67556;55.656;12.590;2023-07-20T03:37:28;3.00;;;2.20;;
78298;SDS011;67556;55.656;12.590;2023-07-20T03:39:54;5.57;;;2.25;;
78298;SDS011;67556;55.656;12.590;2023-07-20T03:42:22;3.00;;;2.10;;
78298;SDS011;67556;55.656;12.590;2023-07-20T03:44:50;3.40;;;2.38;;
78298;SDS011;67556;55.656;12.590;2023-07-20T03:47:18;3.58;;;2.03;;
78298;SDS011;67556;55.656;12.590;2023-07-20T03:49:44;3.17;;;2.25;;
78298;SDS011;67556;55.656;12.590;2023-07-20T03:52:11;2.75;;;1.95;;
78298;SDS011;67556;55.656;12.590;2023-07-20T03:54:37;2.42;;;2.22;;
78298;SDS011;67556;55.656;12.590;2023-07-20T03:57:05;4.50;;;2.20;;
78298;SDS011;67556;55.656;12.590;2023-07-20T03:59:34;3.80;;;2.20;;
78298;SDS011;67556;55.656;12.590;2023-07-20T04:02:01;4.10;;;2.40;;
78298;SDS011;67556;55.656;12.590;2023-07-20T04:04:34;2.60;;;2.30;;
78298;SDS011;67556;55.656;12.590;2023-07-20T04:07:01;4.03;;;2.20;;
78298;SDS011;67556;55.656;12.590;2023-07-20T04:09:28;3.25;;;1.90;;
78298;SDS011;67556;55.656;12.590;2023-07-20T04:11:55;4.40;;;2.20;;
78298;SDS011;67556;55.656;12.590;2023-07-20T04:14:21;4.43;;;2.92;;
78298;SDS011;67556;55.656;12.590;2023-07-20T04:16:48;3.88;;;2.65;;
78298;SDS011;67556;55.656;12.590;2023-07-20T04:19:16;3.92;;;1.92;;
78298;SDS011;67556;55.656;12.590;2023-07-20T04:21:44;4.03;;;2.17;;
78298;SDS011;67556;55.656;12.590;2023-07-20T04:24:11;2.90;;;1.90;;
78298;SDS011;67556;55.656;12.590;2023-07-20T04:26:38;3.00;;;2.00;;
78298;SDS011;67556;55.656;12.590;2023-07-20T04:29:04;3.47;;;2.20;;
78298;SDS011;67556;55.656;12.590;2023-07-20T04:31:32;3.38;;;2.17;;
78298;SDS011;67556;55.656;12.590;2023-07-20T04:33:59;2.83;;;2.00;;
78298;SDS011;67556;55.656;12.590;2023-07-20T04:36:25;3.00;;;2.05;;
78298;SDS011;67556;55.656;12.590;2023-07-20T04:38:54;3.22;;;2.08;;
78298;SDS011;67556;55.656;12.590;2023-07-20T04:41:20;3.25;;;2.05;;
78298;SDS011;67556;55.656;12.590;2023-07-20T04:43:47;3.83;;;2.17;;
78298;SDS011;67556;55.656;12.590;2023-07-20T04:46:13;2.95;;;2.33;;
78298;SDS011;67556;55.656;12.590;2023-07-20T04:48:42;3.47;;;2.20;;
78298;SDS011;67556;55.656;12.590;2023-07-20T04:51:10;6.63;;;2.92;;
78298;SDS011;67556;55.656;12.590;2023-07-20T04:53:37;4.90;;;2.28;;
78298;SDS011;67556;55.656;12.590;2023-07-20T04:56:05;4.38;;;1.90;;
78298;SDS011;67556;55.656;12.590;2023-07-20T04:58:32;2.90;;;1.92;;
78298;SDS011;67556;55.656;12.590;2023-07-20T05:00:58;5.95;;;2.25;;
78298;SDS011;67556;55.656;12.590;2023-07-20T05:03:25;3.45;;;2.10;;
78298;SDS011;67556;55.656;12.590;2023-07-20T05:05:52;3.47;;;2.15;;
78298;SDS011;67556;55.656;12.590;2023-07-20T05:08:19;3.75;;;2.00;;
78298;SDS011;67556;55.656;12.590;2023-07-20T05:10:47;2.78;;;2.00;;
78298;SDS011;67556;55.656;12.590;2023-07-20T05:13:16;3.70;;;2.35;;
78298;SDS011;67556;55.656;12.590;2023-07-20T05:15:43;5.43;;;2.65;;
78298;SDS011;67556;55.656;12.590;2023-07-20T05:18:09;2.83;;;2.00;;
78298;SDS011;67556;55.656;12.590;2023-07-20T05:20:36;5.00;;;2.15;;
78298;SDS011;67556;55.656;12.590;2023-07-20T05:23:02;4.93;;;2.65;;
78298;SDS011;67556;55.656;12.590;2023-07-20T05:25:41;3.65;;;2.60;;
78298;SDS011;67556;55.656;12.590;2023-07-20T05:28:08;5.53;;;2.70;;
78298;SDS011;67556;55.656;12.590;2023-07-20T05:30:36;3.47;;;2.28;;
78298;SDS011;67556;55.656;12.590;2023-07-20T05:33:02;3.67;;;2.25;;
78298;SDS011;67556;55.656;12.590;2023-07-20T05:35:29;3.83;;;2.33;;
78298;SDS011;67556;55.656;12.590;2023-07-20T05:37:56;4.15;;;2.28;;
78298;SDS011;67556;55.656;12.590;2023-07-20T05:40:23;4.03;;;2.55;;
78298;SDS011;67556;55.656;12.590;2023-07-20T05:42:49;4.72;;;2.40;;
78298;SDS011;67556;55.656;12.590;2023-07-20T05:45:17;3.58;;;2.30;;
78298;SDS011;67556;55.656;12.590;2023-07-20T05:47:45;6.47;;;2.40;;
78298;SDS011;67556;55.656;12.590;2023-07-20T05:50:12;5.32;;;2.40;;
78298;SDS011;67556;55.656;12.590;2023-07-20T05:52:39;3.80;;;2.80;;
78298;SDS011;67556;55.656;12.590;2023-07-20T05:55:06;6.78;;;2.58;;
78298;SDS011;67556;55.656;12.590;2023-07-20T05:57:39;3.85;;;2.78;;
78298;SDS011;67556;55.656;12.590;2023-07-20T06:00:08;6.90;;;2.50;;
78298;SDS011;67556;55.656;12.590;2023-07-20T06:02:37;5.15;;;2.65;;
78298;SDS011;67556;55.656;12.590;2023-07-20T06:05:07;5.40;;;2.70;;
78298;SDS011;67556;55.656;12.590;2023-07-20T06:07:35;4.80;;;2.50;;
78298;SDS011;67556;55.656;12.590;2023-07-20T06:10:02;6.07;;;2.60;;
78298;SDS011;67556;55.656;12.590;2023-07-20T06:12:30;4.53;;;2.70;;
78298;SDS011;67556;55.656;12.590;2023-07-20T06:14:57;5.35;;;2.50;;
78298;SDS011;67556;55.656;12.590;2023-07-20T06:17:24;6.50;;;2.63;;
78298;SDS011;67556;55.656;12.590;2023-07-20T06:19:50;3.80;;;2.83;;
78298;SDS011;67556;55.656;12.590;2023-07-20T06:22:18;7.72;;;2.85;;
78298;SDS011;67556;55.656;12.590;2023-07-20T06:24:45;4.07;;;2.78;;
78298;SDS011;67556;55.656;12.590;2023-07-20T06:27:11;4.57;;;2.70;;
78298;SDS011;67556;55.656;12.590;2023-07-20T06:29:38;6.82;;;3.47;;
78298;SDS011;67556;55.656;12.590;2023-07-20T06:32:05;4.72;;;3.33;;
78298;SDS011;67556;55.656;12.590;2023-07-20T06:34:32;5.13;;;2.63;;
78298;SDS011;67556;55.656;12.590;2023-07-20T06:37:01;4.53;;;2.65;;
78298;SDS011;67556;55.656;12.590;2023-07-20T06:39:30;5.55;;;3.00;;
78298;SDS011;67556;55.656;12.590;2023-07-20T06:41:56;6.95;;;2.75;;
78298;SDS011;67556;55.656;12.590;2023-07-20T06:44:23;4.65;;;2.38;;
78298;SDS011;67556;55.656;12.590;2023-07-20T06:46:49;6.20;;;2.63;;
78298;SDS011;67556;55.656;12.590;2023-07-20T06:49:23;6.75;;;2.53;;
78298;SDS011;67556;55.656;12.590;2023-07-20T06:51:51;6.45;;;2.40;;
78298;SDS011;67556;55.656;12.590;2023-07-20T06:54:17;6.78;;;2.63;;
78298;SDS011;67556;55.656;12.590;2023-07-20T06:56:45;4.78;;;2.40;;
78298;SDS011;67556;55.656;12.590;2023-07-20T06:59:12;4.75;;;2.50;;
78298;SDS011;67556;55.656;12.590;2023-07-20T07:01:38;6.00;;;3.33;;
78298;SDS011;67556;55.656;12.590;2023-07-20T07:04:05;3.78;;;2.60;;
78298;SDS011;67556;55.656;12.590;2023-07-20T07:06:33;4.10;;;2.63;;
78298;SDS011;67556;55.656;12.590;2023-07-20T07:09:02;6.85;;;2.33;;
78298;SDS011;67556;55.656;12.590;2023-07-20T07:11:29;3.38;;;2.10;;
78298;SDS011;67556;55.656;12.590;2023-07-20T07:13:57;3.28;;;2.58;;
78298;SDS011;67556;55.656;12.590;2023-07-20T07:16:24;4.72;;;2.50;;
78298;SDS011;67556;55.656;12.590;2023-07-20T07:18:50;3.58;;;2.30;;
78298;SDS011;67556;55.656;12.590;2023-07-20T07:21:17;5.47;;;2.50;;
78298;SDS011;67556;55.656;12.590;2023-07-20T07:23:44;7.70;;;2.45;;
78298;SDS011;67556;55.656;12.590;2023-07-20T07:26:11;5.97;;;2.67;;
78298;SDS011;67556;55.656;12.590;2023-07-20T07:28:38;5.72;;;2.35;;
78298;SDS011;67556;55.656;12.590;2023-07-20T07:31:06;6.40;;;2.88;;
78298;SDS011;67556;55.656;12.590;2023-07-20T07:33:34;4.05;;;2.17;;
78298;SDS011;67556;55.656;12.590;2023-07-20T07:36:03;5.90;;;2.60;;
78298;SDS011;67556;55.656;12.590;2023-07-20T07:38:29;3.80;;;2.95;;
78298;SDS011;67556;55.656;12.590;2023-07-20T07:40:56;3.22;;;2.50;;
78298;SDS011;67556;55.656;12.590;2023-07-20T07:43:23;4.65;;;2.55;;
78298;SDS011;67556;55.656;12.590;2023-07-20T07:45:50;4.10;;;2.55;;
78298;SDS011;67556;55.656;12.590;2023-07-20T07:48:22;6.45;;;2.67;;
78298;SDS011;67556;55.656;12.590;2023-07-20T07:50:50;4.13;;;2.45;;
78298;SDS011;67556;55.656;12.590;2023-07-20T07:53:17;4.18;;;3.03;;
78298;SDS011;67556;55.656;12.590;2023-07-20T07:55:43;4.88;;;2.53;;
78298;SDS011;67556;55.656;12.590;2023-07-20T07:58:11;3.28;;;2.35;;
78298;SDS011;67556;55.656;12.590;2023-07-20T08:00:38;3.78;;;2.55;;
78298;SDS011;67556;55.656;12.590;2023-07-20T08:03:05;8.32;;;2.65;;
78298;SDS011;67556;55.656;12.590;2023-07-20T08:05:35;4.25;;;2.35;;
78298;SDS011;67556;55.656;12.590;2023-07-20T08:08:06;7.75;;;2.33;;
78298;SDS011;67556;55.656;12.590;2023-07-20T08:10:33;4.13;;;2.30;;
78298;SDS011;67556;55.656;12.590;2023-07-20T08:13:00;7.95;;;2.42;;
78298;SDS011;67556;55.656;12.590;2023-07-20T08:15:27;5.13;;;2.80;;
78298;SDS011;67556;55.656;12.590;2023-07-20T08:17:54;4.20;;;2.58;;
78298;SDS011;67556;55.656;12.590;2023-07-20T08:20:26;3.63;;;1.90;;
78298;SDS011;67556;55.656;12.590;2023-07-20T08:22:55;3.58;;;2.10;;
78298;SDS011;67556;55.656;12.590;2023-07-20T08:25:23;5.45;;;2.22;;
78298;SDS011;67556;55.656;12.590;2023-07-20T08:27:55;3.88;;;1.95;;
78298;SDS011;67556;55.656;12.590;2023-07-20T08:30:23;3.58;;;2.42;;
78298;SDS011;67556;55.656;12.590;2023-07-20T08:32:51;4.75;;;2.28;;
78298;SDS011;67556;55.656;12.590;2023-07-20T08:35:18;5.32;;;2.45;;
78298;SDS011;67556;55.656;12.590;2023-07-20T08:37:45;3.85;;;1.98;;
78298;SDS011;67556;55.656;12.590;2023-07-20T08:42:44;3.45;;;2.00;;
78298;SDS011;67556;55.656;12.590;2023-07-20T08:45:14;3.78;;;1.73;;
78298;SDS011;67556;55.656;12.590;2023-07-20T08:47:43;3.42;;;1.95;;
78298;SDS011;67556;55.656;12.590;2023-07-20T08:50:13;3.53;;;1.70;;
78298;SDS011;67556;55.656;12.590;2023-07-20T08:52:41;3.90;;;2.00;;
78298;SDS011;67556;55.656;12.590;2023-07-20T08:55:10;3.45;;;1.80;;
78298;SDS011;67556;55.656;12.590;2023-07-20T08:57:37;4.90;;;1.90;;
78298;SDS011;67556;55.656;12.590;2023-07-20T09:00:07;2.65;;;1.73;;
78298;SDS011;67556;55.656;12.590;2023-07-20T09:02:38;4.55;;;2.22;;
78298;SDS011;67556;55.656;12.590;2023-07-20T09:05:06;4.35;;;2.10;;
78298;SDS011;67556;55.656;12.590;2023-07-20T09:07:35;4.82;;;1.90;;
78298;SDS011;67556;55.656;12.590;2023-07-20T09:10:03;3.53;;;1.85;;
78298;SDS011;67556;55.656;12.590;2023-07-20T09:12:31;3.42;;;1.90;;
78298;SDS011;67556;55.656;12.590;2023-07-20T09:14:59;2.60;;;1.83;;
78298;SDS011;67556;55.656;12.590;2023-07-20T09:17:26;4.65;;;1.90;;
78298;SDS011;67556;55.656;12.590;2023-07-20T09:19:54;3.67;;;1.58;;
78298;SDS011;67556;55.656;12.590;2023-07-20T09:22:21;3.22;;;1.50;;
78298;SDS011;67556;55.656;12.590;2023-07-20T09:24:47;1.95;;;1.35;;
78298;SDS011;67556;55.656;12.590;2023-07-20T09:27:14;4.97;;;1.80;;
78298;SDS011;67556;55.656;12.590;2023-07-20T09:29:47;5.35;;;1.70;;
78298;SDS011;67556;55.656;12.590;2023-07-20T09:32:17;3.72;;;1.73;;
78298;SDS011;67556;55.656;12.590;2023-07-20T09:34:45;4.32;;;1.98;;
78298;SDS011;67556;55.656;12.590;2023-07-20T09:37:11;3.08;;;1.73;;
78298;SDS011;67556;55.656;12.590;2023-07-20T09:39:42;3.60;;;2.10;;
78298;SDS011;67556;55.656;12.590;2023-07-20T09:42:10;4.05;;;2.10;;
78298;SDS011;67556;55.656;12.590;2023-07-20T09:44:38;3.22;;;1.90;;
78298;SDS011;67556;55.656;12.590;2023-07-20T09:47:04;4.55;;;1.73;;
78298;SDS011;67556;55.656;12.590;2023-07-20T09:49:37;4.93;;;2.17;;
78298;SDS011;67556;55.656;12.590;2023-07-20T09:52:05;3.42;;;2.03;;
78298;SDS011;67556;55.656;12.590;2023-07-20T09:54:35;3.42;;;2.30;;
78298;SDS011;67556;55.656;12.590;2023-07-20T09:57:03;3.97;;;1.80;;
78298;SDS011;67556;55.656;12.590;2023-07-20T09:59:32;2.55;;;1.70;;
78298;SDS011;67556;55.656;12.590;2023-07-20T10:01:59;2.58;;;1.90;;
78298;SDS011;67556;55.656;12.590;2023-07-20T10:04:30;4.15;;;1.88;;
78298;SDS011;67556;55.656;12.590;2023-07-20T10:07:00;4.10;;;1.70;;
78298;SDS011;67556;55.656;12.590;2023-07-20T10:09:31;2.83;;;1.70;;
78298;SDS011;67556;55.656;12.590;2023-07-20T10:11:58;3.30;;;1.80;;
78298;SDS011;67556;55.656;12.590;2023-07-20T10:14:25;4.78;;;1.80;;
78298;SDS011;67556;55.656;12.590;2023-07-20T10:16:58;2.80;;;1.50;;
78298;SDS011;67556;55.656;12.590;2023-07-20T10:19:29;3.25;;;1.50;;
78298;SDS011;67556;55.656;12.590;2023-07-20T10:22:07;2.30;;;1.50;;
78298;SDS011;67556;55.656;12.590;2023-07-20T10:24:41;2.42;;;1.60;;
78298;SDS011;67556;55.656;12.590;2023-07-20T10:27:11;3.80;;;1.38;;
78298;SDS011;67556;55.656;12.590;2023-07-20T10:29:37;2.67;;;1.50;;
78298;SDS011;67556;55.656;12.590;2023-07-20T10:32:05;3.92;;;1.75;;
78298;SDS011;67556;55.656;12.590;2023-07-20T10:34:34;5.20;;;1.58;;
78298;SDS011;67556;55.656;12.590;2023-07-20T10:37:01;3.25;;;1.70;;
78298;SDS011;67556;55.656;12.590;2023-07-20T10:39:30;2.22;;;1.23;;
78298;SDS011;67556;55.656;12.590;2023-07-20T10:44:28;2.50;;;1.63;;
78298;SDS011;67556;55.656;12.590;2023-07-20T10:46:58;2.47;;;1.58;;
78298;SDS011;67556;55.656;12.590;2023-07-20T10:49:26;2.03;;;1.58;;
78298;SDS011;67556;55.656;12.590;2023-07-20T10:51:56;2.67;;;1.40;;
78298;SDS011;67556;55.656;12.590;2023-07-20T10:54:35;2.20;;;1.40;;
78298;SDS011;67556;55.656;12.590;2023-07-20T10:57:30;3.72;;;1.45;;
78298;SDS011;67556;55.656;12.590;2023-07-20T11:00:07;2.38;;;1.40;;
78298;SDS011;67556;55.656;12.590;2023-07-20T11:02:44;2.20;;;1.20;;
78298;SDS011;67556;55.656;12.590;2023-07-20T11:07:59;2.03;;;1.35;;
78298;SDS011;67556;55.656;12.590;2023-07-20T11:10:27;2.38;;;1.65;;
78298;SDS011;67556;55.656;12.590;2023-07-20T11:15:45;1.55;;;1.20;;
78298;SDS011;67556;55.656;12.590;2023-07-20T11:18:12;1.83;;;1.33;;
78298;SDS011;67556;55.656;12.590;2023-07-20T11:20:39;4.75;;;1.30;;
78298;SDS011;67556;55.656;12.590;2023-07-20T11:23:06;1.98;;;1.50;;
78298;SDS011;67556;55.656;12.590;2023-07-20T11:25:37;3.45;;;1.30;;
78298;SDS011;67556;55.656;12.590;2023-07-20T11:28:06;2.10;;;1.20;;
78298;SDS011;67556;55.656;12.590;2023-07-20T11:30:33;2.40;;;1.42;;
78298;SDS011;67556;55.656;12.590;2023-07-20T11:33:01;3.25;;;1.38;;
78298;SDS011;67556;55.656;12.590;2023-07-20T11:35:30;2.83;;;1.30;;
78298;SDS011;67556;55.656;12.590;2023-07-20T11:37:56;1.35;;;1.23;;
78298;SDS011;67556;55.656;12.590;2023-07-20T11:40:23;3.08;;;1.58;;
78298;SDS011;67556;55.656;12.590;2023-07-20T11:42:52;3.67;;;1.42;;
78298;SDS011;67556;55.656;12.590;2023-07-20T11:45:19;5.85;;;3.53;;
78298;SDS011;67556;55.656;12.590;2023-07-20T11:47:47;1.92;;;1.30;;
78298;SDS011;67556;55.656;12.590;2023-07-20T11:50:14;3.08;;;1.13;;
78298;SDS011;67556;55.656;12.590;2023-07-20T11:52:41;3.05;;;1.30;;
78298;SDS011;67556;55.656;12.590;2023-07-20T11:55:08;1.70;;;1.20;;
78298;SDS011;67556;55.656;12.590;2023-07-20T11:57:36;1.65;;;1.25;;
78298;SDS011;67556;55.656;12.590;2023-07-20T12:00:05;2.08;;;1.20;;
78298;SDS011;67556;55.656;12.590;2023-07-20T12:02:37;3.83;;;1.38;;
78298;SDS011;67556;55.656;12.590;2023-07-20T12:05:05;2.13;;;1.20;;
78298;SDS011;67556;55.656;12.590;2023-07-20T12:07:35;2.95;;;1.40;;
78298;SDS011;67556;55.656;12.590;2023-07-20T12:10:05;2.30;;;1.33;;
78298;SDS011;67556;55.656;12.590;2023-07-20T12:12:33;1.67;;;1.23;;
78298;SDS011;67556;55.656;12.590;2023-07-20T12:15:19;2.25;;;1.38;;
78298;SDS011;67556;55.656;12.590;2023-07-20T12:17:49;2.60;;;1.10;;
78298;SDS011;67556;55.656;12.590;2023-07-20T12:20:25;2.00;;;1.30;;
78298;SDS011;67556;55.656;12.590;2023-07-20T12:22:52;3.13;;;1.33;;
78298;SDS011;67556;55.656;12.590;2023-07-20T12:25:19;2.70;;;1.60;;
78298;SDS011;67556;55.656;12.590;2023-07-20T12:27:46;2.72;;;1.20;;
78298;SDS011;67556;55.656;12.590;2023-07-20T12:30:13;2.63;;;1.58;;
78298;SDS011;67556;55.656;12.590;2023-07-20T12:32:43;3.40;;;1.30;;
78298;SDS011;67556;55.656;12.590;2023-07-20T12:35:09;3.63;;;1.48;;
78298;SDS011;67556;55.656;12.590;2023-07-20T12:37:36;2.00;;;1.10;;
78298;SDS011;67556;55.656;12.590;2023-07-20T12:40:03;2.90;;;1.27;;
78298;SDS011;67556;55.656;12.590;2023-07-20T12:42:36;2.25;;;1.20;;
78298;SDS011;67556;55.656;12.590;2023-07-20T12:45:03;1.38;;;1.20;;
78298;SDS011;67556;55.656;12.590;2023-07-20T12:47:30;2.28;;;1.40;;
78298;SDS011;67556;55.656;12.590;2023-07-20T12:49:59;1.95;;;1.30;;
78298;SDS011;67556;55.656;12.590;2023-07-20T12:52:26;2.65;;;1.20;;
78298;SDS011;67556;55.656;12.590;2023-07-20T12:54:53;1.27;;;1.00;;
78298;SDS011;67556;55.656;12.590;2023-07-20T12:57:19;2.95;;;1.55;;
78298;SDS011;67556;55.656;12.590;2023-07-20T12:59:53;1.95;;;1.20;;
78298;SDS011;67556;55.656;12.590;2023-07-20T13:02:19;2.03;;;1.20;;
78298;SDS011;67556;55.656;12.590;2023-07-20T13:05:06;2.08;;;1.20;;
78298;SDS011;67556;55.656;12.590;2023-07-20T13:07:34;3.00;;;1.30;;
78298;SDS011;67556;55.656;12.590;2023-07-20T13:10:01;1.73;;;1.20;;
78298;SDS011;67556;55.656;12.590;2023-07-20T13:12:29;1.65;;;1.00;;
78298;SDS011;67556;55.656;12.590;2023-07-20T13:14:57;1.38;;;1.00;;
78298;SDS011;67556;55.656;12.590;2023-07-20T13:17:27;4.45;;;1.10;;
78298;SDS011;67556;55.656;12.590;2023-07-20T13:19:54;1.20;;;1.05;;
78298;SDS011;67556;55.656;12.590;2023-07-20T13:22:22;2.50;;;1.20;;
78298;SDS011;67556;55.656;12.590;2023-07-20T13:25:00;1.73;;;1.20;;
78298;SDS011;67556;55.656;12.590;2023-07-20T13:27:28;4.95;;;1.40;;
78298;SDS011;67556;55.656;12.590;2023-07-20T13:29:57;3.45;;;1.45;;
78298;SDS011;67556;55.656;12.590;2023-07-20T13:32:26;3.35;;;1.70;;
78298;SDS011;67556;55.656;12.590;2023-07-20T13:34:52;3.65;;;1.50;;
78298;SDS011;67556;55.656;12.590;2023-07-20T13:37:19;3.25;;;1.80;;
78298;SDS011;67556;55.656;12.590;2023-07-20T13:39:48;2.38;;;1.45;;
78298;SDS011;67556;55.656;12.590;2023-07-20T13:42:14;2.58;;;1.50;;
78298;SDS011;67556;55.656;12.590;2023-07-20T13:44:42;2.75;;;1.73;;
78298;SDS011;67556;55.656;12.590;2023-07-20T13:47:08;2.10;;;1.50;;
78298;SDS011;67556;55.656;12.590;2023-07-20T13:49:35;1.73;;;1.15;;
78298;SDS011;67556;55.656;12.590;2023-07-20T13:52:02;2.22;;;1.45;;
78298;SDS011;67556;55.656;12.590;2023-07-20T13:54:28;1.30;;;1.20;;
78298;SDS011;67556;55.656;12.590;2023-07-20T13:56:56;2.38;;;1.52;;
78298;SDS011;67556;55.656;12.590;2023-07-20T13:59:23;1.90;;;1.40;;
78298;SDS011;67556;55.656;12.590;2023-07-20T14:01:50;3.53;;;1.40;;
78298;SDS011;67556;55.656;12.590;2023-07-20T14:04:17;1.70;;;1.20;;
78298;SDS011;67556;55.656;12.590;2023-07-20T14:06:44;1.75;;;1.30;;
78298;SDS011;67556;55.656;12.590;2023-07-20T14:09:10;1.25;;;1.15;;
78298;SDS011;67556;55.656;12.590;2023-07-20T14:11:39;3.78;;;1.50;;
78298;SDS011;67556;55.656;12.590;2023-07-20T14:14:08;2.10;;;1.30;;
78298;SDS011;67556;55.656;12.590;2023-07-20T14:16:34;2.47;;;1.20;;
78298;SDS011;67556;55.656;12.590;2023-07-20T14:19:02;2.22;;;1.40;;
78298;SDS011;67556;55.656;12.590;2023-07-20T14:21:30;1.30;;;1.13;;
78298;SDS011;67556;55.656;12.590;2023-07-20T14:23:58;2.13;;;1.05;;
78298;SDS011;67556;55.656;12.590;2023-07-20T14:26:24;5.45;;;1.20;;
78298;SDS011;67556;55.656;12.590;2023-07-20T14:28:51;1.25;;;0.93;;
78298;SDS011;67556;55.656;12.590;2023-07-20T14:31:20;1.10;;;1.00;;
78298;SDS011;67556;55.656;12.590;2023-07-20T14:33:47;0.85;;;0.85;;
78298;SDS011;67556;55.656;12.590;2023-07-20T14:36:13;1.90;;;0.98;;
78298;SDS011;67556;55.656;12.590;2023-07-20T14:38:40;1.20;;;1.08;;
78298;SDS011;67556;55.656;12.590;2023-07-20T14:41:08;1.63;;;0.88;;
78298;SDS011;67556;55.656;12.590;2023-07-20T14:43:34;1.40;;;1.00;;
78298;SDS011;67556;55.656;12.590;2023-07-20T14:46:00;1.05;;;0.93;;
78298;SDS011;67556;55.656;12.590;2023-07-20T14:48:28;1.02;;;0.80;;
78298;SDS011;67556;55.656;12.590;2023-07-20T14:50:55;1.42;;;1.02;;
78298;SDS011;67556;55.656;12.590;2023-07-20T14:53:22;2.75;;;1.10;;